createdAt,value
2023-04-11T00:02:44.983Z,11.00
2023-04-11T00:05:32.058Z,10.90
2023-04-11T00:08:19.546Z,10.92
2023-04-11T00:11:06.258Z,10.88
2023-04-11T00:13:57.368Z,10.92
2023-04-11T00:16:43.266Z,11.01
2023-04-11T00:19:29.239Z,11.00
2023-04-11T00:22:17.576Z,10.95
2023-04-11T00:25:04.888Z,11.07
2023-04-11T00:27:57.357Z,11.12
2023-04-11T00:30:50.565Z,11.07
2023-04-11T00:36:56.962Z,10.86
2023-04-11T00:39:52.861Z,10.93
2023-04-11T00:42:50.801Z,10.91
2023-04-11T00:45:43.792Z,11.00
2023-04-11T00:48:37.028Z,11.01
2023-04-11T00:51:29.636Z,11.03
2023-04-11T00:54:23.805Z,11.01
2023-04-11T00:57:16.431Z,11.01
2023-04-11T01:00:12.163Z,10.96
2023-04-11T01:03:04.631Z,10.89
2023-04-11T01:05:57.534Z,10.82
2023-04-11T01:08:51.117Z,10.80
2023-04-11T01:11:43.599Z,10.79
2023-04-11T01:17:52.852Z,10.57
2023-04-11T01:20:45.838Z,10.61
2023-04-11T01:27:01.671Z,10.51
2023-04-11T01:33:16.332Z,10.63
2023-04-11T01:39:19.460Z,10.54
2023-04-11T01:42:14.763Z,10.48
2023-04-11T01:45:08.935Z,10.53
2023-04-11T01:48:06.774Z,10.68
2023-04-11T01:50:59.745Z,10.73
2023-04-11T01:53:52.478Z,10.54
2023-04-11T01:56:45.789Z,10.61
2023-04-11T02:02:52.329Z,10.78
2023-04-11T02:05:45.888Z,10.86
2023-04-11T02:08:38.212Z,10.86
2023-04-11T02:11:30.447Z,10.90
2023-04-11T02:14:24.182Z,10.87
2023-04-11T02:17:18.233Z,10.96
2023-04-11T02:20:12.994Z,11.12
2023-04-11T02:23:05.699Z,11.15
2023-04-11T02:25:58.823Z,11.08
2023-04-11T02:31:56.101Z,10.93
2023-04-11T02:34:48.861Z,10.90
2023-04-11T02:37:43.439Z,10.93
2023-04-11T02:40:36.799Z,10.90
2023-04-11T02:46:36.501Z,10.87
2023-04-11T02:49:31.526Z,10.86
2023-04-11T02:52:24.678Z,10.85
2023-04-11T02:55:18.663Z,10.88
2023-04-11T02:58:17.446Z,10.87
2023-04-11T03:01:11.810Z,10.63
2023-04-11T03:04:00.725Z,10.52
2023-04-11T03:07:03.443Z,10.30
2023-04-11T03:13:14.290Z,10.26
2023-04-11T03:16:08.231Z,10.01
2023-04-11T03:19:01.182Z,10.00
2023-04-11T03:21:53.416Z,9.88
2023-04-11T03:24:46.894Z,9.89
2023-04-11T03:27:40.045Z,9.84
2023-04-11T03:30:34.711Z,9.97
2023-04-11T03:36:48.599Z,9.87
2023-04-11T03:39:41.275Z,9.72
2023-04-11T03:42:33.523Z,9.65
2023-04-11T03:45:27.622Z,9.64
2023-04-11T03:48:26.436Z,9.54
2023-04-11T03:51:41.674Z,9.43
2023-04-11T03:54:31.448Z,9.30
2023-04-11T04:00:46.203Z,9.08
2023-04-11T04:03:40.115Z,9.07
2023-04-11T04:06:36.690Z,9.04
2023-04-11T04:09:30.476Z,9.21
2023-04-11T04:12:48.444Z,9.34
2023-04-11T04:15:44.710Z,9.35
2023-04-11T04:18:40.790Z,9.45
2023-04-11T04:21:33.825Z,9.31
2023-04-11T04:24:27.474Z,9.40
2023-04-11T04:27:26.714Z,9.42
2023-04-11T04:30:21.989Z,9.34
2023-04-11T04:33:33.617Z,9.42
2023-04-11T04:36:30.911Z,9.55
2023-04-11T04:39:25.321Z,9.67
2023-04-11T04:45:31.389Z,9.51
2023-04-11T04:48:26.224Z,9.44
2023-04-11T04:51:19.643Z,9.59
2023-04-11T04:54:15.862Z,9.63
2023-04-11T04:57:08.620Z,9.64
2023-04-11T05:00:01.153Z,9.84
2023-04-11T05:02:56.130Z,9.82
2023-04-11T05:05:51.699Z,9.84
2023-04-11T05:09:10.710Z,9.97
2023-04-11T05:12:07.242Z,9.88
2023-04-11T05:15:27.553Z,9.78
2023-04-11T05:18:20.491Z,9.51
2023-04-11T05:21:14.226Z,9.69
2023-04-11T05:27:19.320Z,9.71
2023-04-11T05:30:13.618Z,9.65
2023-04-11T05:33:06.587Z,9.91
2023-04-11T05:35:59.331Z,10.36
2023-04-11T05:38:51.908Z,10.98
2023-04-11T05:41:44.442Z,11.55
2023-04-11T05:44:39.834Z,11.47
2023-04-11T05:47:32.381Z,11.48
2023-04-11T05:50:24.831Z,11.75
2023-04-11T05:53:17.765Z,10.56
2023-04-11T05:56:12.670Z,9.38
2023-04-11T05:59:05.296Z,9.03
2023-04-11T06:01:59.678Z,9.19
2023-04-11T06:04:52.607Z,9.06
2023-04-11T06:07:46.377Z,9.01
2023-04-11T06:10:39.009Z,9.20
2023-04-11T06:13:31.680Z,9.01
2023-04-11T06:16:24.591Z,8.78
2023-04-11T06:19:19.188Z,9.01
2023-04-11T06:22:11.888Z,8.87
2023-04-11T06:25:05.054Z,8.90
2023-04-11T06:27:57.458Z,8.75
2023-04-11T06:31:27.834Z,8.42
2023-04-11T06:34:22.080Z,8.34
2023-04-11T06:37:15.808Z,8.23
2023-04-11T06:40:09.898Z,8.09
2023-04-11T06:43:03.045Z,8.20
2023-04-11T06:45:56.829Z,8.15
2023-04-11T06:48:49.459Z,8.21
2023-04-11T06:55:00.259Z,8.22
2023-04-11T06:57:52.551Z,8.29
2023-04-11T07:00:46.014Z,8.35
2023-04-11T07:03:38.976Z,8.65
2023-04-11T07:06:31.853Z,8.57
2023-04-11T07:09:24.711Z,8.91
2023-04-11T07:12:18.562Z,8.33
2023-04-11T07:15:11.901Z,8.20
2023-04-11T07:18:04.523Z,8.51
2023-04-11T07:20:57.877Z,8.70
2023-04-11T07:23:50.622Z,8.74
2023-04-11T07:26:46.205Z,8.79
2023-04-11T07:29:40.135Z,9.00
2023-04-11T07:32:32.506Z,9.12
2023-04-11T07:35:25.843Z,9.34
2023-04-11T07:38:27.178Z,9.66
2023-04-11T07:41:19.512Z,10.00
2023-04-11T07:44:12.832Z,10.01
2023-04-11T07:47:07.184Z,10.59
2023-04-11T07:49:59.463Z,11.32
2023-04-11T07:52:52.623Z,11.87
2023-04-11T07:55:45.522Z,12.05
2023-04-11T07:58:38.859Z,12.57
2023-04-11T08:01:31.540Z,12.88
2023-04-11T08:04:25.897Z,12.80
2023-04-11T08:07:18.629Z,12.65
2023-04-11T08:10:11.803Z,12.70
2023-04-11T08:13:04.246Z,13.11
2023-04-11T08:15:56.873Z,13.12
2023-04-11T08:18:49.594Z,12.75
2023-04-11T08:21:44.514Z,13.17
2023-04-11T08:24:37.585Z,12.96
2023-04-11T08:27:30.258Z,13.70
2023-04-11T08:30:22.305Z,14.14
2023-04-11T08:33:15.183Z,14.16
2023-04-11T08:36:09.867Z,14.66
2023-04-11T08:39:04.128Z,14.91
2023-04-11T08:42:06.970Z,15.75
2023-04-11T08:44:55.135Z,15.07
2023-04-11T08:47:47.642Z,15.05
2023-04-11T08:50:41.708Z,15.06
2023-04-11T08:53:37.220Z,14.22
2023-04-11T08:56:30.962Z,14.00
2023-04-11T08:59:23.556Z,13.15
2023-04-11T09:02:17.025Z,12.95
2023-04-11T09:05:25.514Z,13.70
2023-04-11T09:08:18.879Z,13.91
2023-04-11T09:11:11.953Z,14.88
2023-04-11T09:14:10.531Z,15.65
2023-04-11T09:20:20.097Z,17.00
2023-04-11T09:23:24.339Z,17.08
2023-04-11T09:26:27.186Z,15.68
2023-04-11T09:29:36.729Z,15.27
2023-04-11T09:32:32.503Z,15.04
2023-04-11T09:35:28.479Z,14.99
2023-04-11T09:38:31.169Z,14.50
2023-04-11T09:43:51.473Z,15.15
2023-04-11T09:48:43.678Z,16.66
2023-04-11T09:51:41.118Z,17.29
2023-04-11T09:54:33.997Z,17.19
2023-04-11T09:57:52.273Z,15.87
2023-04-11T10:00:45.590Z,15.01
2023-04-11T10:03:41.749Z,14.05
2023-04-11T10:06:38.444Z,13.65
2023-04-11T10:09:32.291Z,13.53
2023-04-11T10:12:31.639Z,13.37
2023-04-11T10:15:24.462Z,14.08
2023-04-11T10:19:01.033Z,14.58
2023-04-11T10:21:54.768Z,15.45
2023-04-11T10:25:18.307Z,15.24
2023-04-11T10:28:30.451Z,15.52
2023-04-11T10:31:17.447Z,15.14
2023-04-11T10:34:14.265Z,15.33
2023-04-11T10:37:04.899Z,14.76
2023-04-11T10:43:20.795Z,14.75
2023-04-11T10:49:33.059Z,15.82
2023-04-11T10:52:24.471Z,16.59
2023-04-11T10:55:16.913Z,16.42
2023-04-11T10:58:07.110Z,15.42
2023-04-11T11:01:26.115Z,16.04
2023-04-11T11:04:19.078Z,15.07
2023-04-11T11:07:07.078Z,13.86
2023-04-11T11:10:01.211Z,12.95
2023-04-11T11:12:54.773Z,12.23
2023-04-11T11:15:48.894Z,11.58
2023-04-11T11:18:41.783Z,11.51
2023-04-11T11:21:34.694Z,11.84
2023-04-11T11:24:27.417Z,11.90
2023-04-11T11:27:23.493Z,11.96
2023-04-11T11:30:18.456Z,11.22
2023-04-11T11:33:18.548Z,11.14
2023-04-11T11:36:12.214Z,11.42
2023-04-11T11:39:05.324Z,12.64
2023-04-11T11:41:58.126Z,13.46
2023-04-11T11:45:27.770Z,14.43
2023-04-11T11:48:23.219Z,14.60
2023-04-11T11:51:15.742Z,15.05
2023-04-11T11:54:09.582Z,15.62
2023-04-11T11:57:02.839Z,16.55
2023-04-11T11:59:56.125Z,16.55
2023-04-11T12:02:48.787Z,16.95
2023-04-11T12:05:44.117Z,16.69
2023-04-11T12:12:09.863Z,17.48
2023-04-11T12:15:03.258Z,17.58
2023-04-11T12:17:55.928Z,17.98
2023-04-11T12:20:49.892Z,17.53
2023-04-11T12:27:06.302Z,17.24
2023-04-11T12:29:59.928Z,17.48
2023-04-11T12:32:52.569Z,16.25
2023-04-11T12:35:45.235Z,15.49
2023-04-11T12:38:38.965Z,15.70
2023-04-11T12:41:32.549Z,16.29
2023-04-11T12:44:25.969Z,17.01
2023-04-11T12:50:30.932Z,17.19
2023-04-11T12:56:37.206Z,17.68
2023-04-11T13:02:44.562Z,16.23
2023-04-11T13:05:37.905Z,16.09
2023-04-11T13:08:29.173Z,16.40
2023-04-11T13:11:21.603Z,16.77
2023-04-11T13:14:16.201Z,16.09
2023-04-11T13:17:08.866Z,14.99
2023-04-11T13:20:02.065Z,14.22
2023-04-11T13:22:54.738Z,14.25
2023-04-11T13:25:47.694Z,14.21
2023-04-11T13:28:40.457Z,14.18
2023-04-11T13:31:35.071Z,14.25
2023-04-11T13:37:43.873Z,15.67
2023-04-11T13:40:38.098Z,16.25
2023-04-11T13:43:30.826Z,16.66
2023-04-11T13:46:23.986Z,17.06
2023-04-11T13:49:18.033Z,17.34
2023-04-11T13:52:10.394Z,17.88
2023-04-11T13:55:03.245Z,17.78
2023-04-11T13:57:55.755Z,17.72
2023-04-11T14:04:08.449Z,18.46
2023-04-11T14:10:48.896Z,18.47
2023-04-11T14:13:41.504Z,17.84
2023-04-11T14:16:34.555Z,17.96
2023-04-11T14:19:27.350Z,17.86
2023-04-11T14:25:32.310Z,18.13
2023-04-11T14:28:26.992Z,18.35
2023-04-11T14:34:35.982Z,18.71
2023-04-11T14:37:28.571Z,18.84
2023-04-11T14:40:21.480Z,18.19
2023-04-11T14:43:14.480Z,18.10
2023-04-11T14:46:09.269Z,18.16
2023-04-11T14:49:02.028Z,18.23
2023-04-11T14:51:54.576Z,18.57
2023-04-11T14:58:33.810Z,18.05
2023-04-11T15:01:44.276Z,18.00
2023-04-11T15:04:34.892Z,17.22
2023-04-11T15:07:27.338Z,15.79
2023-04-11T15:10:21.305Z,14.88
2023-04-11T15:13:13.581Z,14.89
2023-04-11T15:16:10.364Z,14.81
2023-04-11T15:19:03.991Z,14.89
2023-04-11T15:25:44.178Z,16.45
2023-04-11T15:28:53.890Z,17.10
2023-04-11T15:31:43.890Z,16.74
2023-04-11T15:38:00.335Z,16.37
2023-04-11T15:40:55.127Z,16.13
2023-04-11T15:43:47.743Z,16.11
2023-04-11T15:46:40.800Z,16.67
2023-04-11T15:53:02.526Z,16.97
2023-04-11T15:55:57.308Z,17.54
2023-04-11T15:58:49.584Z,17.73
2023-04-11T16:01:36.201Z,17.94
2023-04-11T16:04:29.686Z,17.97
2023-04-11T16:07:23.441Z,18.26
2023-04-11T16:10:16.898Z,18.38
2023-04-11T16:13:11.101Z,18.21
2023-04-11T16:16:03.823Z,17.66
2023-04-11T16:18:56.536Z,17.16
2023-04-11T16:21:49.880Z,16.85
2023-04-11T16:24:42.265Z,16.54
2023-04-11T16:27:28.774Z,16.17
2023-04-11T16:30:22.813Z,16.11
2023-04-11T16:33:15.696Z,15.90
2023-04-11T16:36:09.185Z,15.75
2023-04-11T16:38:55.705Z,15.60
2023-04-11T16:41:48.963Z,15.35
2023-04-11T16:44:41.361Z,14.75
2023-04-11T16:47:35.018Z,14.77
2023-04-11T16:50:27.629Z,14.65
2023-04-11T16:56:32.894Z,14.90
2023-04-11T16:59:26.512Z,14.89
2023-04-11T17:02:20.003Z,14.56
2023-04-11T17:08:43.308Z,14.46
2023-04-11T17:12:12.808Z,14.58
2023-04-11T17:15:06.913Z,14.25
2023-04-11T17:17:59.886Z,14.21
2023-04-11T17:24:01.550Z,14.62
2023-04-11T17:26:55.364Z,14.37
2023-04-11T17:29:55.872Z,13.98
2023-04-11T17:32:49.079Z,13.78
2023-04-11T17:35:41.531Z,13.80
2023-04-11T17:38:34.330Z,14.02
2023-04-11T17:41:27.707Z,13.85
2023-04-11T17:44:21.072Z,13.47
2023-04-11T17:50:46.417Z,13.45
2023-04-11T17:54:16.816Z,13.20
2023-04-11T17:57:10.598Z,12.87
2023-04-11T18:00:06.643Z,12.84
2023-04-11T18:06:12.068Z,12.59
2023-04-11T18:09:05.566Z,12.43
2023-04-11T18:11:58.899Z,12.18
2023-04-11T18:14:54.111Z,11.90
2023-04-11T18:17:46.892Z,11.60
2023-04-11T18:20:39.320Z,11.34
2023-04-11T18:23:31.693Z,11.10
2023-04-11T18:26:24.781Z,10.86
2023-04-11T18:29:17.926Z,10.63
2023-04-11T18:32:46.636Z,10.49
2023-04-11T18:35:43.271Z,10.26
2023-04-11T18:39:00.553Z,9.97
2023-04-11T18:41:53.665Z,9.73
2023-04-11T18:44:46.512Z,9.63
2023-04-11T18:47:41.276Z,9.62
2023-04-11T18:50:38.416Z,9.63
2023-04-11T18:53:34.716Z,9.56
2023-04-11T18:56:29.151Z,9.46
2023-04-11T18:59:24.949Z,9.41
2023-04-11T19:05:38.994Z,9.18
2023-04-11T19:11:39.811Z,8.88
2023-04-11T19:14:33.446Z,8.70
2023-04-11T19:17:29.908Z,8.46
2023-04-11T19:20:26.347Z,8.38
2023-04-11T19:23:18.587Z,8.21
2023-04-11T19:26:11.227Z,8.09
2023-04-11T19:29:04.808Z,7.97
2023-04-11T19:31:57.538Z,7.73
2023-04-11T19:38:23.322Z,7.52
2023-04-11T19:41:52.798Z,7.48
2023-04-11T19:44:46.814Z,7.45
2023-04-11T19:47:40.369Z,7.45
2023-04-11T19:50:33.492Z,7.47
2023-04-11T19:56:32.874Z,7.28
2023-04-11T19:59:25.579Z,7.19
2023-04-11T20:02:21.054Z,7.04
2023-04-11T20:05:14.793Z,6.99
2023-04-11T20:08:07.879Z,6.85
2023-04-11T20:11:01.951Z,6.55
2023-04-11T20:13:54.200Z,6.56
2023-04-11T20:17:23.863Z,6.66
2023-04-11T20:20:19.452Z,6.78
2023-04-11T20:23:48.830Z,6.85
2023-04-11T20:26:41.821Z,6.74
2023-04-11T20:32:46.944Z,6.78
2023-04-11T20:35:41.202Z,7.05
2023-04-11T20:38:33.371Z,7.25
2023-04-11T20:44:37.917Z,7.47
2023-04-11T20:50:48.415Z,7.46
2023-04-11T20:53:40.367Z,7.61
2023-04-11T20:56:35.105Z,7.74
2023-04-11T20:59:29.807Z,7.89
2023-04-11T21:02:22.893Z,8.10
2023-04-11T21:05:18.213Z,8.25
2023-04-11T21:08:12.229Z,8.35
2023-04-11T21:11:04.728Z,8.42
2023-04-11T21:13:58.079Z,8.46
2023-04-11T21:16:50.743Z,8.48
2023-04-11T21:22:49.690Z,8.40
2023-04-11T21:25:43.699Z,8.39
2023-04-11T21:29:01.609Z,8.50
2023-04-11T21:31:54.347Z,8.43
2023-04-11T21:38:16.446Z,8.63
2023-04-11T21:41:09.783Z,8.65
2023-04-11T21:44:02.925Z,8.71
2023-04-11T21:46:55.947Z,8.75
2023-04-11T21:49:49.071Z,8.82
2023-04-11T21:52:41.612Z,8.94
2023-04-11T21:55:59.843Z,9.04
2023-04-11T21:58:53.998Z,9.10
2023-04-11T22:01:47.809Z,9.14
2023-04-11T22:04:51.631Z,9.20
2023-04-11T22:08:11.123Z,9.20
2023-04-11T22:11:07.471Z,9.19
2023-04-11T22:14:03.139Z,9.25
2023-04-11T22:16:58.096Z,9.22
2023-04-11T22:19:50.756Z,9.26
2023-04-11T22:22:44.700Z,9.16
2023-04-11T22:25:38.637Z,9.10
2023-04-11T22:28:31.464Z,9.05
2023-04-11T22:31:30.162Z,9.10
2023-04-11T22:34:24.707Z,9.08
2023-04-11T22:37:17.578Z,9.13
2023-04-11T22:40:13.522Z,9.26
2023-04-11T22:43:06.678Z,9.32
2023-04-11T22:49:09.473Z,9.52
2023-04-11T22:52:02.679Z,9.63
2023-04-11T22:54:55.814Z,9.73
2023-04-11T22:57:48.836Z,9.84
2023-04-11T23:00:42.118Z,9.87
2023-04-11T23:03:34.862Z,10.03
2023-04-11T23:06:54.459Z,10.09
2023-04-11T23:09:47.845Z,10.15
2023-04-11T23:12:52.147Z,10.23
2023-04-11T23:15:47.274Z,10.29
2023-04-11T23:18:40.394Z,10.36
2023-04-11T23:21:33.081Z,10.38
2023-04-11T23:24:28.799Z,10.48
2023-04-11T23:27:21.750Z,10.44
2023-04-11T23:30:17.320Z,10.52
2023-04-11T23:33:09.645Z,10.51
2023-04-11T23:35:55.808Z,10.52
2023-04-11T23:38:41.989Z,10.52
2023-04-11T23:41:30.152Z,10.53
2023-04-11T23:44:16.389Z,10.59
2023-04-11T23:47:02.586Z,10.56
2023-04-11T23:49:48.406Z,10.62
2023-04-11T23:53:06.536Z,10.62
2023-04-11T23:55:52.807Z,10.62
